sensor_id;sensor_type;location;lat;lon;timestamp;P1;durP1;ratioP1;P2;durP2;ratioP2
24617;SDS011;12762;51.730;5.356;2022-08-01T00:00:05;14.10;;;7.60;;
24617;SDS011;12762;51.730;5.356;2022-08-01T00:02:35;11.83;;;7.20;;
24617;SDS011;12762;51.730;5.356;2022-08-01T00:05:05;12.70;;;6.67;;
24617;SDS011;12762;51.730;5.356;2022-08-01T00:07:33;13.30;;;7.30;;
24617;SDS011;12762;51.730;5.356;2022-08-01T00:10:01;12.37;;;7.50;;
24617;SDS011;12762;51.730;5.356;2022-08-01T00:12:29;13.30;;;7.70;;
24617;SDS011;12762;51.730;5.356;2022-08-01T00:14:56;11.33;;;6.70;;
24617;SDS011;12762;51.730;5.356;2022-08-01T00:17:23;14.87;;;7.97;;
24617;SDS011;12762;51.730;5.356;2022-08-01T00:19:49;12.30;;;7.07;;
24617;SDS011;12762;51.730;5.356;2022-08-01T00:22:16;12.50;;;7.87;;
24617;SDS011;12762;51.730;5.356;2022-08-01T00:24:43;14.60;;;8.30;;
24617;SDS011;12762;51.730;5.356;2022-08-01T00:27:10;14.57;;;7.63;;
24617;SDS011;12762;51.730;5.356;2022-08-01T00:29:36;12.83;;;7.33;;
24617;SDS011;12762;51.730;5.356;2022-08-01T00:32:23;13.53;;;7.57;;
24617;SDS011;12762;51.730;5.356;2022-08-01T00:34:50;12.17;;;6.97;;
24617;SDS011;12762;51.730;5.356;2022-08-01T00:37:17;10.80;;;7.10;;
24617;SDS011;12762;51.730;5.356;2022-08-01T00:39:44;11.47;;;7.33;;
24617;SDS011;12762;51.730;5.356;2022-08-01T00:42:13;13.20;;;7.23;;
24617;SDS011;12762;51.730;5.356;2022-08-01T00:44:40;11.37;;;6.57;;
24617;SDS011;12762;51.730;5.356;2022-08-01T00:47:07;12.10;;;6.87;;
24617;SDS011;12762;51.730;5.356;2022-08-01T00:49:34;13.00;;;7.13;;
24617;SDS011;12762;51.730;5.356;2022-08-01T00:52:02;12.50;;;6.90;;
24617;SDS011;12762;51.730;5.356;2022-08-01T00:54:31;12.97;;;6.77;;
24617;SDS011;12762;51.730;5.356;2022-08-01T00:56:59;13.57;;;7.17;;
24617;SDS011;12762;51.730;5.356;2022-08-01T00:59:26;12.90;;;7.37;;
24617;SDS011;12762;51.730;5.356;2022-08-01T01:01:54;10.30;;;6.63;;
24617;SDS011;12762;51.730;5.356;2022-08-01T01:04:21;12.13;;;7.53;;
24617;SDS011;12762;51.730;5.356;2022-08-01T01:12:29;10.20;;;6.07;;
24617;SDS011;12762;51.730;5.356;2022-08-01T01:18:00;13.77;;;7.67;;
24617;SDS011;12762;51.730;5.356;2022-08-01T01:20:52;15.37;;;7.77;;
24617;SDS011;12762;51.730;5.356;2022-08-01T01:26:36;10.97;;;6.10;;
24617;SDS011;12762;51.730;5.356;2022-08-01T01:29:17;11.67;;;6.47;;
24617;SDS011;12762;51.730;5.356;2022-08-01T01:32:38;13.53;;;6.50;;
24617;SDS011;12762;51.730;5.356;2022-08-01T01:35:10;11.23;;;6.73;;
24617;SDS011;12762;51.730;5.356;2022-08-01T01:37:49;11.33;;;6.07;;
24617;SDS011;12762;51.730;5.356;2022-08-01T01:40:24;12.23;;;6.77;;
24617;SDS011;12762;51.730;5.356;2022-08-01T01:42:52;11.63;;;6.70;;
24617;SDS011;12762;51.730;5.356;2022-08-01T01:45:25;12.03;;;6.77;;
24617;SDS011;12762;51.730;5.356;2022-08-01T01:47:53;12.50;;;6.87;;
24617;SDS011;12762;51.730;5.356;2022-08-01T01:50:20;12.90;;;7.07;;
24617;SDS011;12762;51.730;5.356;2022-08-01T01:52:50;11.80;;;6.80;;
24617;SDS011;12762;51.730;5.356;2022-08-01T01:55:18;13.40;;;6.67;;
24617;SDS011;12762;51.730;5.356;2022-08-01T01:57:47;12.40;;;6.47;;
24617;SDS011;12762;51.730;5.356;2022-08-01T02:00:16;15.50;;;7.10;;
24617;SDS011;12762;51.730;5.356;2022-08-01T02:02:43;12.33;;;6.43;;
24617;SDS011;12762;51.730;5.356;2022-08-01T02:05:11;14.47;;;7.20;;
24617;SDS011;12762;51.730;5.356;2022-08-01T02:07:39;11.57;;;5.90;;
24617;SDS011;12762;51.730;5.356;2022-08-01T02:10:07;12.37;;;6.23;;
24617;SDS011;12762;51.730;5.356;2022-08-01T02:12:36;12.87;;;6.70;;
24617;SDS011;12762;51.730;5.356;2022-08-01T02:15:07;17.03;;;7.60;;
24617;SDS011;12762;51.730;5.356;2022-08-01T02:17:40;16.50;;;6.87;;
24617;SDS011;12762;51.730;5.356;2022-08-01T02:20:10;14.93;;;8.00;;
24617;SDS011;12762;51.730;5.356;2022-08-01T02:22:49;13.53;;;7.53;;
24617;SDS011;12762;51.730;5.356;2022-08-01T02:25:22;12.80;;;7.27;;
24617;SDS011;12762;51.730;5.356;2022-08-01T02:28:04;11.73;;;6.90;;
24617;SDS011;12762;51.730;5.356;2022-08-01T02:30:35;13.70;;;7.37;;
24617;SDS011;12762;51.730;5.356;2022-08-01T02:33:17;13.10;;;7.00;;
24617;SDS011;12762;51.730;5.356;2022-08-01T02:35:48;15.20;;;7.87;;
24617;SDS011;12762;51.730;5.356;2022-08-01T02:38:40;13.10;;;7.00;;
24617;SDS011;12762;51.730;5.356;2022-08-01T02:41:10;15.87;;;7.63;;
24617;SDS011;12762;51.730;5.356;2022-08-01T02:43:42;13.97;;;6.57;;
24617;SDS011;12762;51.730;5.356;2022-08-01T02:46:22;13.80;;;7.53;;
24617;SDS011;12762;51.730;5.356;2022-08-01T02:48:53;12.37;;;6.97;;
24617;SDS011;12762;51.730;5.356;2022-08-01T02:51:24;12.77;;;7.17;;
24617;SDS011;12762;51.730;5.356;2022-08-01T02:53:52;13.43;;;7.50;;
24617;SDS011;12762;51.730;5.356;2022-08-01T02:56:21;13.87;;;7.20;;
24617;SDS011;12762;51.730;5.356;2022-08-01T02:58:48;12.17;;;6.20;;
24617;SDS011;12762;51.730;5.356;2022-08-01T03:01:18;13.97;;;7.43;;
24617;SDS011;12762;51.730;5.356;2022-08-01T03:03:47;13.40;;;7.77;;
24617;SDS011;12762;51.730;5.356;2022-08-01T03:06:14;15.67;;;7.47;;
24617;SDS011;12762;51.730;5.356;2022-08-01T03:08:42;10.93;;;5.83;;
24617;SDS011;12762;51.730;5.356;2022-08-01T03:11:11;13.93;;;6.80;;
24617;SDS011;12762;51.730;5.356;2022-08-01T03:13:40;13.40;;;7.23;;
24617;SDS011;12762;51.730;5.356;2022-08-01T03:16:09;16.03;;;7.77;;
24617;SDS011;12762;51.730;5.356;2022-08-01T03:18:41;18.10;;;7.57;;
24617;SDS011;12762;51.730;5.356;2022-08-01T03:21:11;13.87;;;7.60;;
24617;SDS011;12762;51.730;5.356;2022-08-01T03:23:40;15.70;;;7.90;;
24617;SDS011;12762;51.730;5.356;2022-08-01T03:26:09;16.67;;;7.70;;
24617;SDS011;12762;51.730;5.356;2022-08-01T03:28:37;14.37;;;7.73;;
24617;SDS011;12762;51.730;5.356;2022-08-01T03:31:05;15.87;;;8.33;;
24617;SDS011;12762;51.730;5.356;2022-08-01T03:33:32;15.07;;;8.37;;
24617;SDS011;12762;51.730;5.356;2022-08-01T03:35:59;14.10;;;7.47;;
24617;SDS011;12762;51.730;5.356;2022-08-01T03:38:28;12.40;;;6.63;;
24617;SDS011;12762;51.730;5.356;2022-08-01T03:40:59;12.90;;;7.30;;
24617;SDS011;12762;51.730;5.356;2022-08-01T03:43:38;14.57;;;7.53;;
24617;SDS011;12762;51.730;5.356;2022-08-01T03:46:28;13.90;;;7.00;;
24617;SDS011;12762;51.730;5.356;2022-08-01T03:49:00;16.57;;;8.13;;
24617;SDS011;12762;51.730;5.356;2022-08-01T03:51:32;13.97;;;7.10;;
24617;SDS011;12762;51.730;5.356;2022-08-01T03:54:00;16.17;;;8.13;;
24617;SDS011;12762;51.730;5.356;2022-08-01T03:56:28;16.40;;;8.43;;
24617;SDS011;12762;51.730;5.356;2022-08-01T03:59:01;17.30;;;7.67;;
24617;SDS011;12762;51.730;5.356;2022-08-01T04:01:30;14.63;;;7.53;;
24617;SDS011;12762;51.730;5.356;2022-08-01T04:03:58;15.93;;;7.97;;
24617;SDS011;12762;51.730;5.356;2022-08-01T04:06:26;11.97;;;6.53;;
24617;SDS011;12762;51.730;5.356;2022-08-01T04:08:53;16.27;;;7.47;;
24617;SDS011;12762;51.730;5.356;2022-08-01T04:11:24;14.00;;;7.77;;
24617;SDS011;12762;51.730;5.356;2022-08-01T04:13:52;12.00;;;6.70;;
24617;SDS011;12762;51.730;5.356;2022-08-01T04:16:20;13.20;;;6.90;;
24617;SDS011;12762;51.730;5.356;2022-08-01T04:18:48;14.77;;;7.03;;
24617;SDS011;12762;51.730;5.356;2022-08-01T04:21:17;11.27;;;6.47;;
24617;SDS011;12762;51.730;5.356;2022-08-01T04:23:48;13.53;;;6.60;;
24617;SDS011;12762;51.730;5.356;2022-08-01T04:26:18;11.60;;;6.10;;
24617;SDS011;12762;51.730;5.356;2022-08-01T04:28:47;14.67;;;6.63;;
24617;SDS011;12762;51.730;5.356;2022-08-01T04:31:16;9.33;;;5.33;;
24617;SDS011;12762;51.730;5.356;2022-08-01T04:33:45;12.97;;;6.93;;
24617;SDS011;12762;51.730;5.356;2022-08-01T04:36:15;14.53;;;6.60;;
24617;SDS011;12762;51.730;5.356;2022-08-01T04:38:46;11.83;;;6.17;;
24617;SDS011;12762;51.730;5.356;2022-08-01T04:41:16;13.47;;;6.03;;
24617;SDS011;12762;51.730;5.356;2022-08-01T04:43:44;11.57;;;5.90;;
24617;SDS011;12762;51.730;5.356;2022-08-01T04:46:13;11.67;;;6.73;;
24617;SDS011;12762;51.730;5.356;2022-08-01T04:48:40;12.93;;;5.87;;
24617;SDS011;12762;51.730;5.356;2022-08-01T04:51:14;13.20;;;5.53;;
24617;SDS011;12762;51.730;5.356;2022-08-01T04:53:43;10.30;;;4.83;;
24617;SDS011;12762;51.730;5.356;2022-08-01T04:56:12;10.97;;;5.40;;
24617;SDS011;12762;51.730;5.356;2022-08-01T04:58:40;14.07;;;5.37;;
24617;SDS011;12762;51.730;5.356;2022-08-01T05:01:08;10.90;;;5.80;;
24617;SDS011;12762;51.730;5.356;2022-08-01T05:03:35;10.93;;;5.47;;
24617;SDS011;12762;51.730;5.356;2022-08-01T05:06:04;7.27;;;4.40;;
24617;SDS011;12762;51.730;5.356;2022-08-01T05:08:32;11.20;;;5.50;;
24617;SDS011;12762;51.730;5.356;2022-08-01T05:10:59;9.73;;;4.97;;
24617;SDS011;12762;51.730;5.356;2022-08-01T05:13:27;9.53;;;5.20;;
24617;SDS011;12762;51.730;5.356;2022-08-01T05:15:54;10.07;;;4.90;;
24617;SDS011;12762;51.730;5.356;2022-08-01T05:18:21;8.27;;;4.63;;
24617;SDS011;12762;51.730;5.356;2022-08-01T05:20:53;10.77;;;4.47;;
24617;SDS011;12762;51.730;5.356;2022-08-01T05:23:20;12.07;;;4.80;;
24617;SDS011;12762;51.730;5.356;2022-08-01T05:26:07;7.43;;;4.87;;
24617;SDS011;12762;51.730;5.356;2022-08-01T05:28:34;7.40;;;4.60;;
24617;SDS011;12762;51.730;5.356;2022-08-01T05:31:02;10.20;;;5.23;;
24617;SDS011;12762;51.730;5.356;2022-08-01T05:33:29;9.07;;;5.33;;
24617;SDS011;12762;51.730;5.356;2022-08-01T05:35:56;10.63;;;5.17;;
24617;SDS011;12762;51.730;5.356;2022-08-01T05:38:23;9.63;;;5.27;;
24617;SDS011;12762;51.730;5.356;2022-08-01T05:40:50;9.53;;;5.60;;
24617;SDS011;12762;51.730;5.356;2022-08-01T05:43:18;11.63;;;5.50;;
24617;SDS011;12762;51.730;5.356;2022-08-01T05:45:45;7.33;;;4.50;;
24617;SDS011;12762;51.730;5.356;2022-08-01T05:48:15;10.40;;;5.03;;
24617;SDS011;12762;51.730;5.356;2022-08-01T05:50:41;8.87;;;5.10;;
24617;SDS011;12762;51.730;5.356;2022-08-01T05:53:08;8.17;;;4.70;;
24617;SDS011;12762;51.730;5.356;2022-08-01T05:55:35;9.97;;;4.50;;
24617;SDS011;12762;51.730;5.356;2022-08-01T05:58:02;11.37;;;5.17;;
24617;SDS011;12762;51.730;5.356;2022-08-01T06:00:29;7.43;;;3.97;;
24617;SDS011;12762;51.730;5.356;2022-08-01T06:02:56;7.20;;;4.63;;
24617;SDS011;12762;51.730;5.356;2022-08-01T06:05:23;8.00;;;4.97;;
24617;SDS011;12762;51.730;5.356;2022-08-01T06:07:50;6.97;;;4.77;;
24617;SDS011;12762;51.730;5.356;2022-08-01T06:10:17;6.77;;;5.17;;
24617;SDS011;12762;51.730;5.356;2022-08-01T06:12:44;8.07;;;4.90;;
24617;SDS011;12762;51.730;5.356;2022-08-01T06:15:10;7.40;;;5.47;;
24617;SDS011;12762;51.730;5.356;2022-08-01T06:17:37;6.67;;;4.90;;
24617;SDS011;12762;51.730;5.356;2022-08-01T06:20:05;8.27;;;5.63;;
24617;SDS011;12762;51.730;5.356;2022-08-01T06:22:33;8.40;;;4.97;;
24617;SDS011;12762;51.730;5.356;2022-08-01T06:25:00;7.67;;;5.00;;
24617;SDS011;12762;51.730;5.356;2022-08-01T06:27:27;8.23;;;4.97;;
24617;SDS011;12762;51.730;5.356;2022-08-01T06:29:53;6.33;;;4.53;;
24617;SDS011;12762;51.730;5.356;2022-08-01T06:32:21;6.13;;;4.60;;
24617;SDS011;12762;51.730;5.356;2022-08-01T06:34:53;6.63;;;4.77;;
24617;SDS011;12762;51.730;5.356;2022-08-01T06:37:21;6.43;;;4.70;;
24617;SDS011;12762;51.730;5.356;2022-08-01T06:39:48;5.97;;;4.40;;
24617;SDS011;12762;51.730;5.356;2022-08-01T06:42:16;6.43;;;4.47;;
24617;SDS011;12762;51.730;5.356;2022-08-01T06:44:44;6.40;;;4.70;;
24617;SDS011;12762;51.730;5.356;2022-08-01T06:47:11;7.23;;;4.80;;
24617;SDS011;12762;51.730;5.356;2022-08-01T06:49:38;7.80;;;4.77;;
24617;SDS011;12762;51.730;5.356;2022-08-01T06:52:05;6.23;;;4.57;;
24617;SDS011;12762;51.730;5.356;2022-08-01T06:54:35;5.93;;;4.70;;
24617;SDS011;12762;51.730;5.356;2022-08-01T06:57:04;6.30;;;4.77;;
24617;SDS011;12762;51.730;5.356;2022-08-01T06:59:34;8.50;;;5.07;;
24617;SDS011;12762;51.730;5.356;2022-08-01T07:02:01;7.47;;;5.07;;
24617;SDS011;12762;51.730;5.356;2022-08-01T07:04:28;8.77;;;5.83;;
24617;SDS011;12762;51.730;5.356;2022-08-01T07:06:56;8.83;;;5.63;;
24617;SDS011;12762;51.730;5.356;2022-08-01T07:09:23;7.90;;;5.60;;
24617;SDS011;12762;51.730;5.356;2022-08-01T07:11:50;8.07;;;4.53;;
24617;SDS011;12762;51.730;5.356;2022-08-01T07:14:18;8.73;;;4.87;;
24617;SDS011;12762;51.730;5.356;2022-08-01T07:16:46;6.00;;;4.33;;
24617;SDS011;12762;51.730;5.356;2022-08-01T07:19:13;5.00;;;3.60;;
24617;SDS011;12762;51.730;5.356;2022-08-01T07:21:41;5.93;;;3.73;;
24617;SDS011;12762;51.730;5.356;2022-08-01T07:24:11;5.80;;;3.03;;
24617;SDS011;12762;51.730;5.356;2022-08-01T07:26:44;7.27;;;3.27;;
24617;SDS011;12762;51.730;5.356;2022-08-01T07:29:22;4.33;;;3.20;;
24617;SDS011;12762;51.730;5.356;2022-08-01T07:31:53;5.20;;;3.40;;
24617;SDS011;12762;51.730;5.356;2022-08-01T07:34:22;6.73;;;3.87;;
24617;SDS011;12762;51.730;5.356;2022-08-01T07:36:50;6.00;;;3.23;;
24617;SDS011;12762;51.730;5.356;2022-08-01T07:39:18;6.67;;;3.23;;
24617;SDS011;12762;51.730;5.356;2022-08-01T07:41:45;5.23;;;3.33;;
24617;SDS011;12762;51.730;5.356;2022-08-01T07:44:32;6.40;;;3.57;;
24617;SDS011;12762;51.730;5.356;2022-08-01T07:46:58;4.27;;;2.90;;
24617;SDS011;12762;51.730;5.356;2022-08-01T07:49:25;6.80;;;3.23;;
24617;SDS011;12762;51.730;5.356;2022-08-01T07:51:52;3.43;;;2.70;;
24617;SDS011;12762;51.730;5.356;2022-08-01T07:54:29;4.87;;;2.27;;
24617;SDS011;12762;51.730;5.356;2022-08-01T07:56:59;5.90;;;2.40;;
24617;SDS011;12762;51.730;5.356;2022-08-01T07:59:26;2.87;;;2.50;;
24617;SDS011;12762;51.730;5.356;2022-08-01T08:01:53;3.37;;;2.53;;
24617;SDS011;12762;51.730;5.356;2022-08-01T08:04:20;4.07;;;2.20;;
24617;SDS011;12762;51.730;5.356;2022-08-01T08:06:46;2.50;;;1.70;;
24617;SDS011;12762;51.730;5.356;2022-08-01T08:09:15;3.27;;;1.63;;
24617;SDS011;12762;51.730;5.356;2022-08-01T08:11:45;2.07;;;1.30;;
24617;SDS011;12762;51.730;5.356;2022-08-01T08:14:14;3.17;;;1.50;;
24617;SDS011;12762;51.730;5.356;2022-08-01T08:16:42;1.80;;;1.30;;
24617;SDS011;12762;51.730;5.356;2022-08-01T08:19:09;3.60;;;1.60;;
24617;SDS011;12762;51.730;5.356;2022-08-01T08:21:37;3.20;;;1.27;;
24617;SDS011;12762;51.730;5.356;2022-08-01T08:24:04;1.37;;;1.20;;
24617;SDS011;12762;51.730;5.356;2022-08-01T08:26:56;1.60;;;1.30;;
24617;SDS011;12762;51.730;5.356;2022-08-01T08:29:24;2.63;;;1.60;;
24617;SDS011;12762;51.730;5.356;2022-08-01T08:31:53;2.53;;;1.40;;
24617;SDS011;12762;51.730;5.356;2022-08-01T08:34:26;1.63;;;1.20;;
24617;SDS011;12762;51.730;5.356;2022-08-01T08:36:54;1.53;;;1.10;;
24617;SDS011;12762;51.730;5.356;2022-08-01T08:39:24;1.40;;;1.10;;
24617;SDS011;12762;51.730;5.356;2022-08-01T08:41:52;2.33;;;1.30;;
24617;SDS011;12762;51.730;5.356;2022-08-01T08:44:19;1.58;;;1.02;;
24617;SDS011;12762;51.730;5.356;2022-08-01T08:46:50;2.00;;;1.45;;
24617;SDS011;12762;51.730;5.356;2022-08-01T08:49:25;2.03;;;1.10;;
24617;SDS011;12762;51.730;5.356;2022-08-01T08:52:02;1.75;;;1.40;;
24617;SDS011;12762;51.730;5.356;2022-08-01T08:54:30;2.00;;;1.25;;
24617;SDS011;12762;51.730;5.356;2022-08-01T08:56:59;2.83;;;1.30;;
24617;SDS011;12762;51.730;5.356;2022-08-01T08:59:28;1.85;;;1.38;;
24617;SDS011;12762;51.730;5.356;2022-08-01T09:01:55;2.40;;;1.20;;
24617;SDS011;12762;51.730;5.356;2022-08-01T09:04:29;3.78;;;1.08;;
24617;SDS011;12762;51.730;5.356;2022-08-01T09:06:58;1.88;;;1.27;;
24617;SDS011;12762;51.730;5.356;2022-08-01T09:09:25;2.42;;;2.08;;
24617;SDS011;12762;51.730;5.356;2022-08-01T09:11:53;2.88;;;1.50;;
24617;SDS011;12762;51.730;5.356;2022-08-01T09:14:32;1.92;;;1.45;;
24617;SDS011;12762;51.730;5.356;2022-08-01T09:17:05;2.75;;;1.52;;
24617;SDS011;12762;51.730;5.356;2022-08-01T09:19:39;3.45;;;1.25;;
24617;SDS011;12762;51.730;5.356;2022-08-01T09:22:14;1.17;;;0.95;;
24617;SDS011;12762;51.730;5.356;2022-08-01T09:25:00;1.42;;;0.77;;
24617;SDS011;12762;51.730;5.356;2022-08-01T09:27:31;3.08;;;0.80;;
24617;SDS011;12762;51.730;5.356;2022-08-01T09:33:03;1.60;;;0.60;;
24617;SDS011;12762;51.730;5.356;2022-08-01T09:35:42;0.93;;;0.60;;
24617;SDS011;12762;51.730;5.356;2022-08-01T09:38:17;1.40;;;0.60;;
24617;SDS011;12762;51.730;5.356;2022-08-01T09:40:53;1.35;;;0.57;;
24617;SDS011;12762;51.730;5.356;2022-08-01T09:43:25;0.50;;;0.50;;
24617;SDS011;12762;51.730;5.356;2022-08-01T09:45:54;0.88;;;0.40;;
24617;SDS011;12762;51.730;5.356;2022-08-01T09:48:23;0.98;;;0.52;;
24617;SDS011;12762;51.730;5.356;2022-08-01T09:50:53;0.80;;;0.50;;
24617;SDS011;12762;51.730;5.356;2022-08-01T09:53:20;1.25;;;0.68;;
24617;SDS011;12762;51.730;5.356;2022-08-01T09:56:00;3.38;;;0.93;;
24617;SDS011;12762;51.730;5.356;2022-08-01T09:58:54;0.93;;;0.60;;
24617;SDS011;12762;51.730;5.356;2022-08-01T10:01:49;0.68;;;0.47;;
24617;SDS011;12762;51.730;5.356;2022-08-01T10:04:18;1.70;;;0.45;;
24617;SDS011;12762;51.730;5.356;2022-08-01T10:06:47;0.82;;;0.50;;
24617;SDS011;12762;51.730;5.356;2022-08-01T10:09:28;1.83;;;0.50;;
24617;SDS011;12762;51.730;5.356;2022-08-01T10:12:05;1.58;;;0.70;;
24617;SDS011;12762;51.730;5.356;2022-08-01T10:14:34;1.02;;;0.50;;
24617;SDS011;12762;51.730;5.356;2022-08-01T10:17:03;1.15;;;0.60;;
24617;SDS011;12762;51.730;5.356;2022-08-01T10:19:34;3.53;;;0.50;;
24617;SDS011;12762;51.730;5.356;2022-08-01T10:22:09;4.00;;;1.20;;
24617;SDS011;12762;51.730;5.356;2022-08-01T10:24:42;2.80;;;1.20;;
24617;SDS011;12762;51.730;5.356;2022-08-01T10:27:10;3.23;;;0.80;;
24617;SDS011;12762;51.730;5.356;2022-08-01T10:29:46;2.80;;;0.70;;
24617;SDS011;12762;51.730;5.356;2022-08-01T10:32:49;3.20;;;0.90;;
24617;SDS011;12762;51.730;5.356;2022-08-01T10:35:20;3.23;;;0.97;;
24617;SDS011;12762;51.730;5.356;2022-08-01T10:38:08;2.30;;;1.17;;
24617;SDS011;12762;51.730;5.356;2022-08-01T10:40:39;2.80;;;1.10;;
24617;SDS011;12762;51.730;5.356;2022-08-01T10:43:11;2.20;;;0.93;;
24617;SDS011;12762;51.730;5.356;2022-08-01T10:45:47;2.40;;;1.07;;
24617;SDS011;12762;51.730;5.356;2022-08-01T10:48:24;2.60;;;0.90;;
24617;SDS011;12762;51.730;5.356;2022-08-01T10:51:08;2.07;;;1.00;;
24617;SDS011;12762;51.730;5.356;2022-08-01T10:53:47;2.67;;;1.10;;
24617;SDS011;12762;51.730;5.356;2022-08-01T10:56:20;4.43;;;1.40;;
24617;SDS011;12762;51.730;5.356;2022-08-01T10:58:54;3.83;;;1.30;;
24617;SDS011;12762;51.730;5.356;2022-08-01T11:01:37;5.17;;;1.87;;
24617;SDS011;12762;51.730;5.356;2022-08-01T11:04:12;3.57;;;1.80;;
24617;SDS011;12762;51.730;5.356;2022-08-01T11:06:48;4.40;;;1.67;;
24617;SDS011;12762;51.730;5.356;2022-08-01T11:09:23;4.50;;;1.83;;
24617;SDS011;12762;51.730;5.356;2022-08-01T11:12:15;3.83;;;2.00;;
24617;SDS011;12762;51.730;5.356;2022-08-01T11:28:35;5.43;;;2.57;;
24617;SDS011;12762;51.730;5.356;2022-08-01T11:38:41;7.03;;;2.83;;
24617;SDS011;12762;51.730;5.356;2022-08-01T11:41:28;5.00;;;2.37;;
24617;SDS011;12762;51.730;5.356;2022-08-01T11:54:31;3.55;;;2.05;;
24617;SDS011;12762;51.730;5.356;2022-08-01T11:57:09;4.65;;;1.85;;
24617;SDS011;12762;51.730;5.356;2022-08-01T12:02:28;4.37;;;2.40;;
24617;SDS011;12762;51.730;5.356;2022-08-01T12:07:42;6.00;;;2.03;;
24617;SDS011;12762;51.730;5.356;2022-08-01T12:10:13;4.53;;;2.05;;
24617;SDS011;12762;51.730;5.356;2022-08-01T12:12:46;4.57;;;2.08;;
24617;SDS011;12762;51.730;5.356;2022-08-01T12:15:15;3.97;;;1.80;;
24617;SDS011;12762;51.730;5.356;2022-08-01T12:17:44;4.53;;;2.15;;
24617;SDS011;12762;51.730;5.356;2022-08-01T12:20:25;5.28;;;1.88;;
24617;SDS011;12762;51.730;5.356;2022-08-01T12:22:56;5.05;;;2.20;;
24617;SDS011;12762;51.730;5.356;2022-08-01T12:25:25;7.18;;;2.15;;
24617;SDS011;12762;51.730;5.356;2022-08-01T12:27:52;5.57;;;1.48;;
24617;SDS011;12762;51.730;5.356;2022-08-01T12:30:22;3.55;;;1.85;;
24617;SDS011;12762;51.730;5.356;2022-08-01T12:32:51;4.60;;;1.88;;
24617;SDS011;12762;51.730;5.356;2022-08-01T12:35:22;5.40;;;1.52;;
24617;SDS011;12762;51.730;5.356;2022-08-01T12:37:52;5.53;;;1.80;;
24617;SDS011;12762;51.730;5.356;2022-08-01T12:40:21;7.68;;;2.03;;
24617;SDS011;12762;51.730;5.356;2022-08-01T12:42:50;6.80;;;2.22;;
24617;SDS011;12762;51.730;5.356;2022-08-01T12:45:23;4.85;;;2.00;;
24617;SDS011;12762;51.730;5.356;2022-08-01T12:47:56;7.10;;;2.20;;
24617;SDS011;12762;51.730;5.356;2022-08-01T12:50:27;6.88;;;2.10;;
24617;SDS011;12762;51.730;5.356;2022-08-01T12:52:56;4.47;;;1.90;;
24617;SDS011;12762;51.730;5.356;2022-08-01T12:55:24;5.72;;;1.88;;
24617;SDS011;12762;51.730;5.356;2022-08-01T12:58:04;4.18;;;1.38;;
24617;SDS011;12762;51.730;5.356;2022-08-01T13:00:31;8.48;;;2.25;;
24617;SDS011;12762;51.730;5.356;2022-08-01T13:05:40;7.30;;;1.92;;
24617;SDS011;12762;51.730;5.356;2022-08-01T13:08:15;7.97;;;2.15;;
24617;SDS011;12762;51.730;5.356;2022-08-01T13:10:43;5.47;;;1.65;;
24617;SDS011;12762;51.730;5.356;2022-08-01T13:13:11;4.57;;;1.48;;
24617;SDS011;12762;51.730;5.356;2022-08-01T13:16:02;5.03;;;1.30;;
24617;SDS011;12762;51.730;5.356;2022-08-01T13:18:34;3.88;;;1.40;;
24617;SDS011;12762;51.730;5.356;2022-08-01T13:21:12;7.13;;;2.10;;
24617;SDS011;12762;51.730;5.356;2022-08-01T13:26:52;7.00;;;1.40;;
24617;SDS011;12762;51.730;5.356;2022-08-01T13:29:36;3.75;;;1.20;;
24617;SDS011;12762;51.730;5.356;2022-08-01T13:32:14;4.45;;;1.27;;
24617;SDS011;12762;51.730;5.356;2022-08-01T13:35:05;4.95;;;1.25;;
24617;SDS011;12762;51.730;5.356;2022-08-01T13:37:35;4.72;;;1.40;;
24617;SDS011;12762;51.730;5.356;2022-08-01T13:40:04;4.32;;;1.20;;
24617;SDS011;12762;51.730;5.356;2022-08-01T13:42:32;6.65;;;1.30;;
24617;SDS011;12762;51.730;5.356;2022-08-01T13:44:59;5.25;;;1.73;;
24617;SDS011;12762;51.730;5.356;2022-08-01T13:47:28;4.50;;;1.30;;
24617;SDS011;12762;51.730;5.356;2022-08-01T13:49:57;4.05;;;1.20;;
24617;SDS011;12762;51.730;5.356;2022-08-01T13:52:27;4.13;;;1.83;;
24617;SDS011;12762;51.730;5.356;2022-08-01T13:54:54;5.32;;;1.45;;
24617;SDS011;12762;51.730;5.356;2022-08-01T13:57:21;5.55;;;1.20;;
24617;SDS011;12762;51.730;5.356;2022-08-01T13:59:48;5.00;;;1.58;;
24617;SDS011;12762;51.730;5.356;2022-08-01T14:02:18;6.03;;;1.38;;
24617;SDS011;12762;51.730;5.356;2022-08-01T14:04:45;6.00;;;1.73;;
24617;SDS011;12762;51.730;5.356;2022-08-01T14:07:12;5.53;;;1.20;;
24617;SDS011;12762;51.730;5.356;2022-08-01T14:09:40;6.53;;;1.50;;
24617;SDS011;12762;51.730;5.356;2022-08-01T14:12:10;3.60;;;1.45;;
24617;SDS011;12762;51.730;5.356;2022-08-01T14:14:37;7.93;;;1.20;;
24617;SDS011;12762;51.730;5.356;2022-08-01T14:17:04;4.40;;;1.35;;
24617;SDS011;12762;51.730;5.356;2022-08-01T14:19:31;3.53;;;1.08;;
24617;SDS011;12762;51.730;5.356;2022-08-01T14:22:04;6.43;;;1.52;;
24617;SDS011;12762;51.730;5.356;2022-08-01T14:24:34;5.30;;;1.40;;
24617;SDS011;12762;51.730;5.356;2022-08-01T14:27:04;5.80;;;1.75;;
24617;SDS011;12762;51.730;5.356;2022-08-01T14:29:31;4.63;;;1.50;;
24617;SDS011;12762;51.730;5.356;2022-08-01T14:32:17;4.07;;;1.30;;
24617;SDS011;12762;51.730;5.356;2022-08-01T14:34:49;7.47;;;1.05;;
24617;SDS011;12762;51.730;5.356;2022-08-01T14:37:16;4.70;;;1.25;;
24617;SDS011;12762;51.730;5.356;2022-08-01T14:39:43;6.50;;;1.35;;
24617;SDS011;12762;51.730;5.356;2022-08-01T14:42:19;7.78;;;1.20;;
24617;SDS011;12762;51.730;5.356;2022-08-01T14:44:46;5.43;;;1.42;;
24617;SDS011;12762;51.730;5.356;2022-08-01T14:47:15;3.80;;;1.27;;
24617;SDS011;12762;51.730;5.356;2022-08-01T14:49:48;3.33;;;0.90;;
24617;SDS011;12762;51.730;5.356;2022-08-01T14:52:15;5.25;;;1.13;;
24617;SDS011;12762;51.730;5.356;2022-08-01T14:54:42;3.58;;;1.00;;
24617;SDS011;12762;51.730;5.356;2022-08-01T14:57:09;4.68;;;0.90;;
24617;SDS011;12762;51.730;5.356;2022-08-01T14:59:36;5.60;;;1.10;;
24617;SDS011;12762;51.730;5.356;2022-08-01T15:02:03;4.78;;;1.15;;
24617;SDS011;12762;51.730;5.356;2022-08-01T15:04:30;3.00;;;1.02;;
24617;SDS011;12762;51.730;5.356;2022-08-01T15:06:57;3.78;;;1.05;;
24617;SDS011;12762;51.730;5.356;2022-08-01T15:09:24;4.40;;;1.08;;
24617;SDS011;12762;51.730;5.356;2022-08-01T15:11:50;3.08;;;1.10;;
24617;SDS011;12762;51.730;5.356;2022-08-01T15:14:17;3.60;;;1.10;;
24617;SDS011;12762;51.730;5.356;2022-08-01T15:17:06;5.38;;;1.30;;
24617;SDS011;12762;51.730;5.356;2022-08-01T15:19:33;2.72;;;0.90;;
24617;SDS011;12762;51.730;5.356;2022-08-01T15:22:06;3.97;;;0.98;;
24617;SDS011;12762;51.730;5.356;2022-08-01T15:24:34;2.67;;;0.93;;
24617;SDS011;12762;51.730;5.356;2022-08-01T15:27:00;3.45;;;1.10;;
24617;SDS011;12762;51.730;5.356;2022-08-01T15:29:28;3.72;;;0.82;;
24617;SDS011;12762;51.730;5.356;2022-08-01T15:31:55;2.28;;;0.70;;
24617;SDS011;12762;51.730;5.356;2022-08-01T15:34:22;3.28;;;1.00;;
24617;SDS011;12762;51.730;5.356;2022-08-01T15:36:49;1.90;;;0.60;;
24617;SDS011;12762;51.730;5.356;2022-08-01T15:39:16;2.90;;;0.90;;
24617;SDS011;12762;51.730;5.356;2022-08-01T15:41:43;2.00;;;0.85;;
24617;SDS011;12762;51.730;5.356;2022-08-01T15:44:10;1.92;;;0.95;;
24617;SDS011;12762;51.730;5.356;2022-08-01T15:46:37;2.47;;;1.08;;
24617;SDS011;12762;51.730;5.356;2022-08-01T15:49:04;1.25;;;0.57;;
24617;SDS011;12762;51.730;5.356;2022-08-01T15:51:32;1.52;;;0.60;;
24617;SDS011;12762;51.730;5.356;2022-08-01T15:53:59;3.45;;;0.73;;
24617;SDS011;12762;51.730;5.356;2022-08-01T15:56:29;1.42;;;0.70;;
24617;SDS011;12762;51.730;5.356;2022-08-01T15:58:56;2.83;;;0.73;;
24617;SDS011;12762;51.730;5.356;2022-08-01T16:01:23;2.42;;;0.85;;